Main page
METAR-TAF:

METAR-TAF

Airports :

Nuremberg Airport

Nuremberg, Germany

latitude: 49-30N, longitude: 011-03E, elevation: 318 m

Current weather observation

The report was made 7 minutes ago, at 06:50 UTC
Wind 5 kt from the South/Southeast, varying between East and South
Temperature 5°C
Humidity 65%
Pressure 1014 hPa
Visibility 10 km or more
Scattered clouds at a height of 4600 ft

METAR: EDDN 030650Z 16005KT 100V180 9999 SCT046 05/M01 Q1014 NOSIG

Time: 08:57 (06:57 UTC)

Forecast

The report was made 1 hour and 57 minutes ago, at 05:00 UTC
Forecast valid from 03 at 06 UTC to 04 at 06 UTC
Wind 3 kt from variable directions
Visibility 10 km or more
Scattered clouds at a height of 2500 ft
Becoming
from 03 at 08 UTC to 03 at 10 UTC
Wind 8 kt from the West
Becoming
from 03 at 17 UTC to 03 at 19 UTC
Wind 3 kt from variable directions

TAF: EDDN 030500Z 0306/0406 VRB03KT 9999 SCT025 BECMG 0308/0310 26008KT BECMG 0317/0319 VRB03KT

Weather observations and forecasts of more than 4000 airports (METAR and TAF reports).

The available stations are represented by yellow and red dots on the map.

Hover mouse over dot to see the name of the station.

Then click to see weather observations and forecasts.

To change the map : click on the green buttons with a black cross to zoom in, on the green button with a dash to zoom out, or on the green arrows for adjacent maps.


METAR-TAF: